sensor_id;sensor_type;location;lat;lon;timestamp;temperature;humidity
58469;DHT22;44257;44.804;10.220;2023-04-25T00:01:32;10.60;99.90
58469;DHT22;44257;44.804;10.220;2023-04-25T00:04:02;10.50;99.90
58469;DHT22;44257;44.804;10.220;2023-04-25T00:06:28;10.50;99.90
58469;DHT22;44257;44.804;10.220;2023-04-25T00:08:56;10.40;99.90
58469;DHT22;44257;44.804;10.220;2023-04-25T00:11:22;10.40;99.90
58469;DHT22;44257;44.804;10.220;2023-04-25T00:13:49;10.40;99.90
58469;DHT22;44257;44.804;10.220;2023-04-25T00:16:16;10.40;99.90
58469;DHT22;44257;44.804;10.220;2023-04-25T00:18:43;10.40;99.90
58469;DHT22;44257;44.804;10.220;2023-04-25T00:21:09;10.50;99.90
58469;DHT22;44257;44.804;10.220;2023-04-25T00:23:35;10.40;99.90
58469;DHT22;44257;44.804;10.220;2023-04-25T00:26:02;10.40;99.90
58469;DHT22;44257;44.804;10.220;2023-04-25T00:28:28;10.40;99.90
58469;DHT22;44257;44.804;10.220;2023-04-25T00:30:53;10.40;99.90
58469;DHT22;44257;44.804;10.220;2023-04-25T00:33:19;10.40;99.90
58469;DHT22;44257;44.804;10.220;2023-04-25T00:35:45;10.30;99.90
58469;DHT22;44257;44.804;10.220;2023-04-25T00:38:11;10.30;99.90
58469;DHT22;44257;44.804;10.220;2023-04-25T00:40:37;10.20;99.90
58469;DHT22;44257;44.804;10.220;2023-04-25T00:43:03;10.20;99.90
58469;DHT22;44257;44.804;10.220;2023-04-25T00:45:29;10.20;99.90
58469;DHT22;44257;44.804;10.220;2023-04-25T00:47:56;10.20;99.90
58469;DHT22;44257;44.804;10.220;2023-04-25T00:50:23;10.10;99.90
58469;DHT22;44257;44.804;10.220;2023-04-25T00:52:49;10.00;99.90
58469;DHT22;44257;44.804;10.220;2023-04-25T00:55:15;10.00;99.90
58469;DHT22;44257;44.804;10.220;2023-04-25T00:57:42;10.00;99.90
58469;DHT22;44257;44.804;10.220;2023-04-25T01:00:10;9.80;99.90
58469;DHT22;44257;44.804;10.220;2023-04-25T01:02:36;9.80;99.90
58469;DHT22;44257;44.804;10.220;2023-04-25T01:05:03;9.70;99.90
58469;DHT22;44257;44.804;10.220;2023-04-25T01:07:29;9.70;99.90
58469;DHT22;44257;44.804;10.220;2023-04-25T01:09:56;9.70;99.90
58469;DHT22;44257;44.804;10.220;2023-04-25T01:12:22;9.60;99.90
58469;DHT22;44257;44.804;10.220;2023-04-25T01:14:48;9.60;99.90
58469;DHT22;44257;44.804;10.220;2023-04-25T01:17:14;9.60;99.90
58469;DHT22;44257;44.804;10.220;2023-04-25T01:19:41;9.60;99.90
58469;DHT22;44257;44.804;10.220;2023-04-25T01:22:07;9.60;99.90
58469;DHT22;44257;44.804;10.220;2023-04-25T01:24:35;9.60;99.90
58469;DHT22;44257;44.804;10.220;2023-04-25T01:27:02;9.50;99.90
58469;DHT22;44257;44.804;10.220;2023-04-25T01:29:29;9.50;99.90
58469;DHT22;44257;44.804;10.220;2023-04-25T01:31:56;9.50;99.90
58469;DHT22;44257;44.804;10.220;2023-04-25T01:34:24;9.50;99.90
58469;DHT22;44257;44.804;10.220;2023-04-25T01:36:51;9.50;99.90
58469;DHT22;44257;44.804;10.220;2023-04-25T01:39:18;9.40;99.90
58469;DHT22;44257;44.804;10.220;2023-04-25T01:41:45;9.40;99.90
58469;DHT22;44257;44.804;10.220;2023-04-25T01:44:13;9.30;99.90
58469;DHT22;44257;44.804;10.220;2023-04-25T01:46:39;9.20;99.90
58469;DHT22;44257;44.804;10.220;2023-04-25T01:49:05;9.20;99.90
58469;DHT22;44257;44.804;10.220;2023-04-25T01:51:32;9.20;99.90
58469;DHT22;44257;44.804;10.220;2023-04-25T01:53:58;9.10;99.90
58469;DHT22;44257;44.804;10.220;2023-04-25T01:56:25;9.00;99.90
58469;DHT22;44257;44.804;10.220;2023-04-25T01:58:51;8.90;99.90
58469;DHT22;44257;44.804;10.220;2023-04-25T02:01:19;8.80;99.90
58469;DHT22;44257;44.804;10.220;2023-04-25T02:03:57;8.80;99.90
58469;DHT22;44257;44.804;10.220;2023-04-25T02:06:28;8.70;99.90
58469;DHT22;44257;44.804;10.220;2023-04-25T02:08:56;8.80;99.90
58469;DHT22;44257;44.804;10.220;2023-04-25T02:11:22;8.80;99.90
58469;DHT22;44257;44.804;10.220;2023-04-25T02:14:14;8.80;99.90
58469;DHT22;44257;44.804;10.220;2023-04-25T02:16:58;8.80;99.90
58469;DHT22;44257;44.804;10.220;2023-04-25T02:19:24;8.70;99.90
58469;DHT22;44257;44.804;10.220;2023-04-25T02:21:50;8.70;99.90
58469;DHT22;44257;44.804;10.220;2023-04-25T02:24:16;8.70;99.90
58469;DHT22;44257;44.804;10.220;2023-04-25T02:26:42;8.70;99.90
58469;DHT22;44257;44.804;10.220;2023-04-25T02:29:09;8.70;99.90
58469;DHT22;44257;44.804;10.220;2023-04-25T02:31:34;8.70;99.90
58469;DHT22;44257;44.804;10.220;2023-04-25T02:34:00;8.60;99.90
58469;DHT22;44257;44.804;10.220;2023-04-25T02:36:27;8.60;99.90
58469;DHT22;44257;44.804;10.220;2023-04-25T02:38:53;8.50;99.90
58469;DHT22;44257;44.804;10.220;2023-04-25T02:41:20;8.40;99.90
58469;DHT22;44257;44.804;10.220;2023-04-25T02:43:47;8.40;99.90
58469;DHT22;44257;44.804;10.220;2023-04-25T02:46:12;8.40;99.90
58469;DHT22;44257;44.804;10.220;2023-04-25T02:48:39;8.40;99.90
58469;DHT22;44257;44.804;10.220;2023-04-25T02:51:04;8.40;99.90
58469;DHT22;44257;44.804;10.220;2023-04-25T02:53:31;8.40;99.90
58469;DHT22;44257;44.804;10.220;2023-04-25T02:55:57;8.40;99.90
58469;DHT22;44257;44.804;10.220;2023-04-25T02:58:24;8.40;99.90
58469;DHT22;44257;44.804;10.220;2023-04-25T03:00:52;8.40;99.90
58469;DHT22;44257;44.804;10.220;2023-04-25T03:03:18;8.30;99.90
58469;DHT22;44257;44.804;10.220;2023-04-25T03:05:49;8.30;99.90
58469;DHT22;44257;44.804;10.220;2023-04-25T03:08:18;8.30;99.90
58469;DHT22;44257;44.804;10.220;2023-04-25T03:10:44;8.30;99.90
58469;DHT22;44257;44.804;10.220;2023-04-25T03:13:12;8.30;99.90
58469;DHT22;44257;44.804;10.220;2023-04-25T03:15:40;8.30;99.90
58469;DHT22;44257;44.804;10.220;2023-04-25T03:18:06;8.30;99.90
58469;DHT22;44257;44.804;10.220;2023-04-25T03:20:32;8.30;99.90
58469;DHT22;44257;44.804;10.220;2023-04-25T03:22:58;8.30;99.90
58469;DHT22;44257;44.804;10.220;2023-04-25T03:25:24;8.30;99.90
58469;DHT22;44257;44.804;10.220;2023-04-25T03:27:49;8.40;99.90
58469;DHT22;44257;44.804;10.220;2023-04-25T03:30:15;8.30;99.90
58469;DHT22;44257;44.804;10.220;2023-04-25T03:32:43;8.30;99.90
58469;DHT22;44257;44.804;10.220;2023-04-25T03:35:09;8.40;99.90
58469;DHT22;44257;44.804;10.220;2023-04-25T03:37:35;8.40;99.90
58469;DHT22;44257;44.804;10.220;2023-04-25T03:40:01;8.40;99.90
58469;DHT22;44257;44.804;10.220;2023-04-25T03:42:45;8.40;99.90
58469;DHT22;44257;44.804;10.220;2023-04-25T03:45:11;8.40;99.90
58469;DHT22;44257;44.804;10.220;2023-04-25T03:47:37;8.40;99.90
58469;DHT22;44257;44.804;10.220;2023-04-25T03:50:03;8.40;99.90
58469;DHT22;44257;44.804;10.220;2023-04-25T03:52:29;8.30;99.90
58469;DHT22;44257;44.804;10.220;2023-04-25T03:54:55;8.40;99.90
58469;DHT22;44257;44.804;10.220;2023-04-25T03:57:23;8.40;99.90
58469;DHT22;44257;44.804;10.220;2023-04-25T03:59:49;8.40;99.90
58469;DHT22;44257;44.804;10.220;2023-04-25T04:02:15;8.40;99.90
58469;DHT22;44257;44.804;10.220;2023-04-25T04:04:41;8.40;99.90
58469;DHT22;44257;44.804;10.220;2023-04-25T04:07:09;8.30;99.90
58469;DHT22;44257;44.804;10.220;2023-04-25T04:09:39;8.30;99.90
58469;DHT22;44257;44.804;10.220;2023-04-25T04:12:08;8.30;99.90
58469;DHT22;44257;44.804;10.220;2023-04-25T04:14:37;8.30;99.90
58469;DHT22;44257;44.804;10.220;2023-04-25T04:17:03;8.30;99.90
58469;DHT22;44257;44.804;10.220;2023-04-25T04:19:29;8.20;99.90
58469;DHT22;44257;44.804;10.220;2023-04-25T04:22:15;8.20;99.90
58469;DHT22;44257;44.804;10.220;2023-04-25T04:24:41;8.20;99.90
58469;DHT22;44257;44.804;10.220;2023-04-25T04:27:10;8.20;99.90
58469;DHT22;44257;44.804;10.220;2023-04-25T04:30:07;8.20;99.90
58469;DHT22;44257;44.804;10.220;2023-04-25T04:32:38;8.20;99.90
58469;DHT22;44257;44.804;10.220;2023-04-25T04:35:05;8.20;99.90
58469;DHT22;44257;44.804;10.220;2023-04-25T04:37:32;8.20;99.90
58469;DHT22;44257;44.804;10.220;2023-04-25T04:39:59;8.30;99.90
58469;DHT22;44257;44.804;10.220;2023-04-25T04:42:37;8.30;99.90
58469;DHT22;44257;44.804;10.220;2023-04-25T04:45:36;8.40;99.90
58469;DHT22;44257;44.804;10.220;2023-04-25T04:48:05;8.40;99.90
58469;DHT22;44257;44.804;10.220;2023-04-25T04:50:53;8.40;99.90
58469;DHT22;44257;44.804;10.220;2023-04-25T04:53:51;8.40;99.90
58469;DHT22;44257;44.804;10.220;2023-04-25T04:56:36;8.50;99.90
58469;DHT22;44257;44.804;10.220;2023-04-25T04:59:20;8.60;99.90
58469;DHT22;44257;44.804;10.220;2023-04-25T05:02:02;8.60;99.90
58469;DHT22;44257;44.804;10.220;2023-04-25T05:04:44;8.50;99.90
58469;DHT22;44257;44.804;10.220;2023-04-25T05:07:40;8.50;99.90
58469;DHT22;44257;44.804;10.220;2023-04-25T05:10:25;8.50;99.90
58469;DHT22;44257;44.804;10.220;2023-04-25T05:12:54;8.70;99.90
58469;DHT22;44257;44.804;10.220;2023-04-25T05:15:35;8.70;99.90
58469;DHT22;44257;44.804;10.220;2023-04-25T05:18:40;8.80;99.90
58469;DHT22;44257;44.804;10.220;2023-04-25T05:21:24;8.90;99.90
58469;DHT22;44257;44.804;10.220;2023-04-25T05:24:05;9.20;99.90
58469;DHT22;44257;44.804;10.220;2023-04-25T05:27:03;9.40;99.90
58469;DHT22;44257;44.804;10.220;2023-04-25T05:29:51;9.50;99.90
58469;DHT22;44257;44.804;10.220;2023-04-25T05:32:52;9.70;99.90
58469;DHT22;44257;44.804;10.220;2023-04-25T05:35:18;9.90;99.90
58469;DHT22;44257;44.804;10.220;2023-04-25T05:37:50;10.10;99.90
58469;DHT22;44257;44.804;10.220;2023-04-25T05:40:26;10.40;99.90
58469;DHT22;44257;44.804;10.220;2023-04-25T05:43:15;10.80;99.90
58469;DHT22;44257;44.804;10.220;2023-04-25T05:45:59;11.20;99.90
58469;DHT22;44257;44.804;10.220;2023-04-25T05:48:44;11.60;99.90
58469;DHT22;44257;44.804;10.220;2023-04-25T05:51:36;11.80;99.90
58469;DHT22;44257;44.804;10.220;2023-04-25T05:54:15;11.80;99.90
58469;DHT22;44257;44.804;10.220;2023-04-25T05:56:41;11.80;99.90
58469;DHT22;44257;44.804;10.220;2023-04-25T05:59:07;11.70;99.90
58469;DHT22;44257;44.804;10.220;2023-04-25T06:01:33;11.70;99.90
58469;DHT22;44257;44.804;10.220;2023-04-25T06:03:59;11.60;99.90
58469;DHT22;44257;44.804;10.220;2023-04-25T06:06:25;11.60;99.90
58469;DHT22;44257;44.804;10.220;2023-04-25T06:08:53;11.60;99.90
58469;DHT22;44257;44.804;10.220;2023-04-25T06:11:19;11.60;99.90
58469;DHT22;44257;44.804;10.220;2023-04-25T06:13:46;11.60;99.90
58469;DHT22;44257;44.804;10.220;2023-04-25T06:16:12;11.80;99.90
58469;DHT22;44257;44.804;10.220;2023-04-25T06:18:38;11.90;99.90
58469;DHT22;44257;44.804;10.220;2023-04-25T06:21:04;12.00;99.90
58469;DHT22;44257;44.804;10.220;2023-04-25T06:23:31;12.20;99.90
58469;DHT22;44257;44.804;10.220;2023-04-25T06:26:02;12.40;99.90
58469;DHT22;44257;44.804;10.220;2023-04-25T06:28:29;12.50;99.90
58469;DHT22;44257;44.804;10.220;2023-04-25T06:30:55;12.70;99.90
58469;DHT22;44257;44.804;10.220;2023-04-25T06:33:21;12.80;99.90
58469;DHT22;44257;44.804;10.220;2023-04-25T06:35:48;13.00;99.90
58469;DHT22;44257;44.804;10.220;2023-04-25T06:38:17;13.20;99.90
58469;DHT22;44257;44.804;10.220;2023-04-25T06:40:47;13.30;99.90
58469;DHT22;44257;44.804;10.220;2023-04-25T06:43:13;13.40;99.90
58469;DHT22;44257;44.804;10.220;2023-04-25T06:45:57;13.50;99.90
58469;DHT22;44257;44.804;10.220;2023-04-25T06:48:27;13.80;99.90
58469;DHT22;44257;44.804;10.220;2023-04-25T06:50:54;14.00;99.90
58469;DHT22;44257;44.804;10.220;2023-04-25T06:53:19;14.10;99.90
58469;DHT22;44257;44.804;10.220;2023-04-25T06:55:50;14.40;99.90
58469;DHT22;44257;44.804;10.220;2023-04-25T06:58:18;14.60;99.90
58469;DHT22;44257;44.804;10.220;2023-04-25T07:00:50;14.90;99.90
58469;DHT22;44257;44.804;10.220;2023-04-25T07:03:17;14.90;99.90
58469;DHT22;44257;44.804;10.220;2023-04-25T07:05:43;14.90;99.90
58469;DHT22;44257;44.804;10.220;2023-04-25T07:08:11;15.00;99.90
58469;DHT22;44257;44.804;10.220;2023-04-25T07:10:37;15.00;99.90
58469;DHT22;44257;44.804;10.220;2023-04-25T07:13:04;15.20;99.90
58469;DHT22;44257;44.804;10.220;2023-04-25T07:15:30;15.30;99.90
58469;DHT22;44257;44.804;10.220;2023-04-25T07:17:57;15.50;99.90
58469;DHT22;44257;44.804;10.220;2023-04-25T07:20:23;15.70;99.90
58469;DHT22;44257;44.804;10.220;2023-04-25T07:22:49;15.80;99.90
58469;DHT22;44257;44.804;10.220;2023-04-25T07:25:16;16.00;99.90
58469;DHT22;44257;44.804;10.220;2023-04-25T07:27:43;16.10;99.90
58469;DHT22;44257;44.804;10.220;2023-04-25T07:30:16;16.10;99.90
58469;DHT22;44257;44.804;10.220;2023-04-25T07:32:42;16.10;99.90
58469;DHT22;44257;44.804;10.220;2023-04-25T07:35:08;15.90;99.90
58469;DHT22;44257;44.804;10.220;2023-04-25T07:37:35;15.70;99.90
58469;DHT22;44257;44.804;10.220;2023-04-25T07:40:13;15.70;99.90
58469;DHT22;44257;44.804;10.220;2023-04-25T07:42:49;15.60;99.90
58469;DHT22;44257;44.804;10.220;2023-04-25T07:45:20;15.50;99.90
58469;DHT22;44257;44.804;10.220;2023-04-25T07:47:46;15.50;99.90
58469;DHT22;44257;44.804;10.220;2023-04-25T07:50:12;15.50;99.90
58469;DHT22;44257;44.804;10.220;2023-04-25T07:52:39;15.60;99.90
58469;DHT22;44257;44.804;10.220;2023-04-25T07:55:13;15.70;99.90
58469;DHT22;44257;44.804;10.220;2023-04-25T07:57:58;15.80;99.90
58469;DHT22;44257;44.804;10.220;2023-04-25T08:00:28;15.80;99.90
58469;DHT22;44257;44.804;10.220;2023-04-25T08:03:09;16.00;99.90
58469;DHT22;44257;44.804;10.220;2023-04-25T08:05:36;16.10;99.90
58469;DHT22;44257;44.804;10.220;2023-04-25T08:08:05;16.20;99.90
58469;DHT22;44257;44.804;10.220;2023-04-25T08:10:33;16.40;99.90
58469;DHT22;44257;44.804;10.220;2023-04-25T08:12:59;16.70;99.90
58469;DHT22;44257;44.804;10.220;2023-04-25T08:15:25;16.80;99.90
58469;DHT22;44257;44.804;10.220;2023-04-25T08:17:52;17.00;99.90
58469;DHT22;44257;44.804;10.220;2023-04-25T08:20:18;17.10;99.90
58469;DHT22;44257;44.804;10.220;2023-04-25T08:22:48;17.10;99.90
58469;DHT22;44257;44.804;10.220;2023-04-25T08:25:26;17.10;99.90
58469;DHT22;44257;44.804;10.220;2023-04-25T08:27:53;17.00;99.90
58469;DHT22;44257;44.804;10.220;2023-04-25T08:30:21;17.00;99.90
58469;DHT22;44257;44.804;10.220;2023-04-25T08:32:47;17.00;99.90
58469;DHT22;44257;44.804;10.220;2023-04-25T08:35:32;17.00;99.90
58469;DHT22;44257;44.804;10.220;2023-04-25T08:37:59;17.10;99.90
58469;DHT22;44257;44.804;10.220;2023-04-25T08:40:28;17.20;99.90
58469;DHT22;44257;44.804;10.220;2023-04-25T08:43:07;17.10;99.90
58469;DHT22;44257;44.804;10.220;2023-04-25T08:45:41;17.00;99.90
58469;DHT22;44257;44.804;10.220;2023-04-25T08:48:17;17.00;99.90
58469;DHT22;44257;44.804;10.220;2023-04-25T08:50:54;16.90;99.90
58469;DHT22;44257;44.804;10.220;2023-04-25T08:53:28;17.00;99.90
58469;DHT22;44257;44.804;10.220;2023-04-25T08:55:55;16.90;99.90
58469;DHT22;44257;44.804;10.220;2023-04-25T08:58:22;16.80;99.90
58469;DHT22;44257;44.804;10.220;2023-04-25T09:00:50;16.70;99.90
58469;DHT22;44257;44.804;10.220;2023-04-25T09:03:18;16.60;99.90
58469;DHT22;44257;44.804;10.220;2023-04-25T09:05:46;16.60;99.90
58469;DHT22;44257;44.804;10.220;2023-04-25T09:08:15;16.80;99.90
58469;DHT22;44257;44.804;10.220;2023-04-25T09:10:41;16.90;99.90
58469;DHT22;44257;44.804;10.220;2023-04-25T09:13:10;17.00;99.90
58469;DHT22;44257;44.804;10.220;2023-04-25T09:15:57;17.20;99.90
58469;DHT22;44257;44.804;10.220;2023-04-25T09:18:41;17.20;99.90
58469;DHT22;44257;44.804;10.220;2023-04-25T09:21:09;17.30;99.90
58469;DHT22;44257;44.804;10.220;2023-04-25T09:23:46;17.20;99.90
58469;DHT22;44257;44.804;10.220;2023-04-25T09:26:18;17.20;99.90
58469;DHT22;44257;44.804;10.220;2023-04-25T09:28:45;17.10;99.90
58469;DHT22;44257;44.804;10.220;2023-04-25T09:31:22;17.30;99.90
58469;DHT22;44257;44.804;10.220;2023-04-25T09:33:50;17.60;99.90
58469;DHT22;44257;44.804;10.220;2023-04-25T09:36:16;17.90;99.90
58469;DHT22;44257;44.804;10.220;2023-04-25T09:39:00;18.10;99.90
58469;DHT22;44257;44.804;10.220;2023-04-25T09:41:33;18.30;99.90
58469;DHT22;44257;44.804;10.220;2023-04-25T09:44:03;18.50;99.90
58469;DHT22;44257;44.804;10.220;2023-04-25T09:46:35;18.60;99.90
58469;DHT22;44257;44.804;10.220;2023-04-25T09:49:14;18.60;99.90
58469;DHT22;44257;44.804;10.220;2023-04-25T09:52:01;18.30;99.90
58469;DHT22;44257;44.804;10.220;2023-04-25T09:54:33;18.30;99.90
58469;DHT22;44257;44.804;10.220;2023-04-25T09:57:18;18.20;99.90
58469;DHT22;44257;44.804;10.220;2023-04-25T09:59:46;18.20;99.90
58469;DHT22;44257;44.804;10.220;2023-04-25T10:02:15;18.20;99.90
58469;DHT22;44257;44.804;10.220;2023-04-25T10:04:45;18.30;99.90
58469;DHT22;44257;44.804;10.220;2023-04-25T10:07:22;18.50;99.90
58469;DHT22;44257;44.804;10.220;2023-04-25T10:09:57;18.60;99.90
58469;DHT22;44257;44.804;10.220;2023-04-25T10:12:25;18.70;99.90
58469;DHT22;44257;44.804;10.220;2023-04-25T10:14:52;18.80;99.90
58469;DHT22;44257;44.804;10.220;2023-04-25T10:17:20;18.90;99.90
58469;DHT22;44257;44.804;10.220;2023-04-25T10:19:47;19.10;99.90
58469;DHT22;44257;44.804;10.220;2023-04-25T10:24:53;19.20;99.90
58469;DHT22;44257;44.804;10.220;2023-04-25T10:27:21;19.20;99.90
58469;DHT22;44257;44.804;10.220;2023-04-25T10:30:21;19.10;99.90
58469;DHT22;44257;44.804;10.220;2023-04-25T10:32:47;19.10;99.90
58469;DHT22;44257;44.804;10.220;2023-04-25T10:35:22;19.10;99.90
58469;DHT22;44257;44.804;10.220;2023-04-25T10:38:11;19.30;99.90
58469;DHT22;44257;44.804;10.220;2023-04-25T10:40:39;19.40;99.90
58469;DHT22;44257;44.804;10.220;2023-04-25T10:43:37;19.60;99.90
58469;DHT22;44257;44.804;10.220;2023-04-25T10:46:25;19.80;99.90
58469;DHT22;44257;44.804;10.220;2023-04-25T10:49:00;19.90;99.90
58469;DHT22;44257;44.804;10.220;2023-04-25T10:51:33;20.00;99.90
58469;DHT22;44257;44.804;10.220;2023-04-25T10:54:05;20.30;99.90
58469;DHT22;44257;44.804;10.220;2023-04-25T10:56:32;20.40;99.90
58469;DHT22;44257;44.804;10.220;2023-04-25T10:59:09;20.50;99.90
58469;DHT22;44257;44.804;10.220;2023-04-25T11:01:41;20.90;99.90
58469;DHT22;44257;44.804;10.220;2023-04-25T11:07:02;21.10;99.90
58469;DHT22;44257;44.804;10.220;2023-04-25T11:09:33;20.90;99.90
58469;DHT22;44257;44.804;10.220;2023-04-25T11:11:59;20.70;99.90
58469;DHT22;44257;44.804;10.220;2023-04-25T11:14:26;20.60;99.90
58469;DHT22;44257;44.804;10.220;2023-04-25T11:16:56;20.60;99.90
58469;DHT22;44257;44.804;10.220;2023-04-25T11:19:24;20.50;99.90
58469;DHT22;44257;44.804;10.220;2023-04-25T11:21:50;20.50;99.90
58469;DHT22;44257;44.804;10.220;2023-04-25T11:24:26;20.50;99.90
58469;DHT22;44257;44.804;10.220;2023-04-25T11:26:52;20.50;99.90
58469;DHT22;44257;44.804;10.220;2023-04-25T11:29:21;20.40;99.90
58469;DHT22;44257;44.804;10.220;2023-04-25T11:31:47;20.50;99.90
58469;DHT22;44257;44.804;10.220;2023-04-25T11:34:20;20.40;99.90
58469;DHT22;44257;44.804;10.220;2023-04-25T11:36:46;20.40;99.90
58469;DHT22;44257;44.804;10.220;2023-04-25T11:39:12;20.60;99.90
58469;DHT22;44257;44.804;10.220;2023-04-25T11:41:38;20.80;99.90
58469;DHT22;44257;44.804;10.220;2023-04-25T11:44:05;21.00;99.90
58469;DHT22;44257;44.804;10.220;2023-04-25T11:46:33;20.90;99.90
58469;DHT22;44257;44.804;10.220;2023-04-25T11:49:00;21.00;99.90
58469;DHT22;44257;44.804;10.220;2023-04-25T11:51:26;21.10;99.90
58469;DHT22;44257;44.804;10.220;2023-04-25T11:53:52;21.30;99.90
58469;DHT22;44257;44.804;10.220;2023-04-25T11:56:19;21.40;99.90
58469;DHT22;44257;44.804;10.220;2023-04-25T11:59:05;21.50;99.90
58469;DHT22;44257;44.804;10.220;2023-04-25T12:01:36;21.60;99.90
58469;DHT22;44257;44.804;10.220;2023-04-25T12:04:17;21.40;99.90
58469;DHT22;44257;44.804;10.220;2023-04-25T12:06:44;21.30;99.90
58469;DHT22;44257;44.804;10.220;2023-04-25T12:09:13;21.30;99.90
58469;DHT22;44257;44.804;10.220;2023-04-25T12:11:42;21.30;99.90
58469;DHT22;44257;44.804;10.220;2023-04-25T12:14:09;21.10;99.90
58469;DHT22;44257;44.804;10.220;2023-04-25T12:16:43;21.10;99.90
58469;DHT22;44257;44.804;10.220;2023-04-25T12:19:09;21.10;99.90
58469;DHT22;44257;44.804;10.220;2023-04-25T12:21:36;21.30;99.90
58469;DHT22;44257;44.804;10.220;2023-04-25T12:24:15;21.50;99.90
58469;DHT22;44257;44.804;10.220;2023-04-25T12:29:24;21.60;98.90
58469;DHT22;44257;44.804;10.220;2023-04-25T12:31:51;21.40;98.70
58469;DHT22;44257;44.804;10.220;2023-04-25T12:34:21;21.30;99.50
58469;DHT22;44257;44.804;10.220;2023-04-25T12:36:48;21.30;99.90
58469;DHT22;44257;44.804;10.220;2023-04-25T12:39:15;21.30;99.90
58469;DHT22;44257;44.804;10.220;2023-04-25T12:41:41;21.40;99.70
58469;DHT22;44257;44.804;10.220;2023-04-25T12:44:06;21.50;99.20
58469;DHT22;44257;44.804;10.220;2023-04-25T12:46:32;21.60;98.10
58469;DHT22;44257;44.804;10.220;2023-04-25T12:48:58;21.70;99.60
58469;DHT22;44257;44.804;10.220;2023-04-25T12:51:24;21.90;98.80
58469;DHT22;44257;44.804;10.220;2023-04-25T12:53:51;22.00;99.20
58469;DHT22;44257;44.804;10.220;2023-04-25T12:56:17;22.20;98.10
58469;DHT22;44257;44.804;10.220;2023-04-25T12:58:43;22.10;99.20
58469;DHT22;44257;44.804;10.220;2023-04-25T13:01:09;22.20;98.90
58469;DHT22;44257;44.804;10.220;2023-04-25T13:03:37;22.30;98.10
58469;DHT22;44257;44.804;10.220;2023-04-25T13:06:03;22.40;97.80
58469;DHT22;44257;44.804;10.220;2023-04-25T13:08:30;22.40;96.90
58469;DHT22;44257;44.804;10.220;2023-04-25T13:10:55;22.30;97.10
58469;DHT22;44257;44.804;10.220;2023-04-25T13:13:21;22.30;97.00
58469;DHT22;44257;44.804;10.220;2023-04-25T13:15:47;22.20;96.90
58469;DHT22;44257;44.804;10.220;2023-04-25T13:18:15;22.20;97.60
58469;DHT22;44257;44.804;10.220;2023-04-25T13:20:41;22.20;97.60
58469;DHT22;44257;44.804;10.220;2023-04-25T13:23:07;22.30;96.50
58469;DHT22;44257;44.804;10.220;2023-04-25T13:25:33;22.30;97.30
58469;DHT22;44257;44.804;10.220;2023-04-25T13:27:59;22.30;96.30
58469;DHT22;44257;44.804;10.220;2023-04-25T13:30:25;22.30;97.10
58469;DHT22;44257;44.804;10.220;2023-04-25T13:32:51;22.30;96.30
58469;DHT22;44257;44.804;10.220;2023-04-25T13:35:18;22.20;96.60
58469;DHT22;44257;44.804;10.220;2023-04-25T13:37:44;22.30;97.00
58469;DHT22;44257;44.804;10.220;2023-04-25T13:40:11;22.40;97.10
58469;DHT22;44257;44.804;10.220;2023-04-25T13:42:37;22.50;95.80
58469;DHT22;44257;44.804;10.220;2023-04-25T13:45:04;22.50;95.40
58469;DHT22;44257;44.804;10.220;2023-04-25T13:47:30;22.20;95.10
58469;DHT22;44257;44.804;10.220;2023-04-25T13:49:56;21.90;95.60
58469;DHT22;44257;44.804;10.220;2023-04-25T13:52:22;21.60;95.90
58469;DHT22;44257;44.804;10.220;2023-04-25T13:54:51;21.60;96.80
58469;DHT22;44257;44.804;10.220;2023-04-25T13:57:17;21.80;97.10
58469;DHT22;44257;44.804;10.220;2023-04-25T13:59:43;22.20;97.40
58469;DHT22;44257;44.804;10.220;2023-04-25T14:02:09;22.50;96.80
58469;DHT22;44257;44.804;10.220;2023-04-25T14:04:35;22.50;95.40
58469;DHT22;44257;44.804;10.220;2023-04-25T14:07:02;22.40;95.60
58469;DHT22;44257;44.804;10.220;2023-04-25T14:09:30;22.40;94.80
58469;DHT22;44257;44.804;10.220;2023-04-25T14:11:56;22.40;95.60
58469;DHT22;44257;44.804;10.220;2023-04-25T14:14:22;22.50;95.70
58469;DHT22;44257;44.804;10.220;2023-04-25T14:16:49;22.70;94.90
58469;DHT22;44257;44.804;10.220;2023-04-25T14:19:16;22.80;94.90
58469;DHT22;44257;44.804;10.220;2023-04-25T14:21:42;23.00;94.30
58469;DHT22;44257;44.804;10.220;2023-04-25T14:24:09;23.10;93.30
58469;DHT22;44257;44.804;10.220;2023-04-25T14:26:36;23.10;94.30
58469;DHT22;44257;44.804;10.220;2023-04-25T14:29:04;23.10;94.50
58469;DHT22;44257;44.804;10.220;2023-04-25T14:31:31;23.10;93.80
58469;DHT22;44257;44.804;10.220;2023-04-25T14:33:57;23.10;93.40
58469;DHT22;44257;44.804;10.220;2023-04-25T14:36:22;23.00;93.90
58469;DHT22;44257;44.804;10.220;2023-04-25T14:38:48;22.80;93.50
58469;DHT22;44257;44.804;10.220;2023-04-25T14:41:14;22.60;94.00
58469;DHT22;44257;44.804;10.220;2023-04-25T14:43:40;22.50;94.40
58469;DHT22;44257;44.804;10.220;2023-04-25T14:46:06;22.50;94.20
58469;DHT22;44257;44.804;10.220;2023-04-25T14:48:33;22.60;94.10
58469;DHT22;44257;44.804;10.220;2023-04-25T14:50:59;22.70;94.80
58469;DHT22;44257;44.804;10.220;2023-04-25T14:53:26;22.80;94.30
58469;DHT22;44257;44.804;10.220;2023-04-25T14:55:52;22.70;94.10
58469;DHT22;44257;44.804;10.220;2023-04-25T14:58:19;22.50;94.30
58469;DHT22;44257;44.804;10.220;2023-04-25T15:00:46;22.40;94.30
58469;DHT22;44257;44.804;10.220;2023-04-25T15:03:13;22.40;94.20
58469;DHT22;44257;44.804;10.220;2023-04-25T15:05:39;22.40;93.80
58469;DHT22;44257;44.804;10.220;2023-04-25T15:08:06;22.50;93.20
58469;DHT22;44257;44.804;10.220;2023-04-25T15:10:32;22.60;93.80
58469;DHT22;44257;44.804;10.220;2023-04-25T15:12:58;22.80;93.40
58469;DHT22;44257;44.804;10.220;2023-04-25T15:15:24;22.90;92.70
58469;DHT22;44257;44.804;10.220;2023-04-25T15:17:49;22.80;93.50
58469;DHT22;44257;44.804;10.220;2023-04-25T15:20:16;22.40;94.10
58469;DHT22;44257;44.804;10.220;2023-04-25T15:22:43;21.80;95.00
58469;DHT22;44257;44.804;10.220;2023-04-25T15:25:10;21.30;95.30
58469;DHT22;44257;44.804;10.220;2023-04-25T15:27:38;20.70;95.50
58469;DHT22;44257;44.804;10.220;2023-04-25T15:30:08;20.30;96.10
58469;DHT22;44257;44.804;10.220;2023-04-25T15:32:36;19.80;97.10
58469;DHT22;44257;44.804;10.220;2023-04-25T15:35:04;19.40;97.60
58469;DHT22;44257;44.804;10.220;2023-04-25T15:37:31;19.00;98.30
58469;DHT22;44257;44.804;10.220;2023-04-25T15:42:41;18.20;98.80
58469;DHT22;44257;44.804;10.220;2023-04-25T15:45:09;17.10;99.90
58469;DHT22;44257;44.804;10.220;2023-04-25T15:47:38;15.70;99.90